• pl
  • eng

Awiacja
WIADOMOŚCI
ostatnia aktualizacja: 08.05.2017 13:35
Szanowni Państwo,

Instytut Meteorologii i Gospodarki Wodnej - Państwowy Instytut Badawczy, poszukuje kandydatów do pracy na stanowisku administracyjnym - specjalista w Centrum Meteorologicznej Osłony Lotnictwa Cywilnego - Wydziale Organizacji Meteorologicznej Osłony Lotnictwa Cywilnego w Warszawie. Szczegółowe informacje znajdują się tutaj.

Kliknij na pogrubioną czerwoną nazwę, aby odkodować depeszę. 13:31 29.06.2017
  • WIND
  • SIGNIFICANT EURO
  • SIGNIFICANT
  • SIGMET
  • AIRMET
  • TAF FC
  • TAF FT
  • METAR GG30
  • METAR GG00


METAR EPBY 291130Z 13016G27KT 2200 +TSRA FEW005 SCT044CB 23/19 Q0992
=

METAR EPGD 291130Z 03010KT 9999 FEW012 BKN017 23/20 Q0995 =

METAR EPKK 291130Z 21009KT 9999 SCT056 27/14 Q0996 =

METAR EPKT 291130Z 21018KT 170V230 CAVOK 27/12 Q0996 =

METAR EPLB 291130Z 18013KT 150V210 9999 -TSRA SCT029 BKN055CB 20/14
Q0998 RESHRA =

METAR EPLL 291130Z 17007G17KT 110V230 9999 FEW050CB 27/17 Q0993 RETS
=

METAR EPMO 291130Z 17013G23KT 120V210 8000 TSRA BKN091CB 19/17 Q0995
RETSRA =

METAR EPPO 291130Z 19012KT 140V200 9999 FEW046TCU SCT049 27/15 Q0990
=

METAR EPRA 291130Z 18012G22KT CAVOK 25/18 Q0996=

METAR EPRZ 291130Z 19026G37KT 9999 FEW043 28/13 Q0999 =

METAR EPSC 291130Z 06006KT 350V110 9999 SCT021 BKN028 25/19 Q0991 =

METAR EPSY 291130Z 10010KT 040V160 9999 SCT035 28/20 Q0995=

METAR EPWA 291130Z 14006KT 9999 -SHRA VCTS FEW017 SCT033CB 19/17
Q0995 RETSRA NOSIG=

METAR EPWR 291130Z 20013KT 170V230 9999 SCT032TCU 25/16 Q0992 =

METAR EPZG 291130Z 24005KT 200V310 9999 VCTS SCT030CB SCT040 25/20
Q0989 RETS =
Awiacja.imgw.pl jest pogodowym serwisem informacyjnym
Instytutu Meteorologii i Gospodarki Wodnej Państwowego Instytutu Badawczego.
Copyright IMGW PIB 2009-2011© Wszelkie prawa zastrzeżone.